createdAt,value
2018-01-18T00:00:01.010Z,998.58
2018-01-18T00:01:00.984Z,998.59
2018-01-18T00:02:00.948Z,998.55
2018-01-18T00:03:00.935Z,998.52
2018-01-18T00:04:00.887Z,998.57
2018-01-18T00:05:00.849Z,998.55
2018-01-18T00:06:00.826Z,998.55
2018-01-18T00:07:00.827Z,998.57
2018-01-18T00:08:00.775Z,998.55
2018-01-18T00:09:00.735Z,998.55
2018-01-18T00:10:00.709Z,998.50
2018-01-18T00:11:00.690Z,998.48
2018-01-18T00:12:00.656Z,998.50
2018-01-18T00:13:00.623Z,998.48
2018-01-18T00:14:00.595Z,998.44
2018-01-18T00:15:00.578Z,998.46
2018-01-18T00:16:00.531Z,998.43
2018-01-18T00:17:00.496Z,998.46
2018-01-18T00:18:00.460Z,998.39
2018-01-18T00:19:00.454Z,998.34
2018-01-18T00:20:00.402Z,998.28
2018-01-18T00:21:00.377Z,998.27
2018-01-18T00:22:00.350Z,998.24
2018-01-18T00:23:00.322Z,998.22
2018-01-18T00:24:00.297Z,998.20
2018-01-18T00:25:00.260Z,998.23
2018-01-18T00:26:00.235Z,998.21
2018-01-18T00:27:00.198Z,998.20
2018-01-18T00:28:00.189Z,998.22
2018-01-18T00:29:00.142Z,998.23
2018-01-18T00:30:00.108Z,998.18
2018-01-18T00:31:00.081Z,998.17
2018-01-18T00:32:00.049Z,998.15
2018-01-18T00:33:00.040Z,998.17
2018-01-18T00:34:00.000Z,998.13
2018-01-18T00:34:59.978Z,998.12
2018-01-18T00:35:59.943Z,998.09
2018-01-18T00:36:59.904Z,998.05
2018-01-18T00:37:59.870Z,998.04
2018-01-18T00:38:59.855Z,998.04
2018-01-18T00:39:59.831Z,998.00
2018-01-18T00:40:59.789Z,998.00
2018-01-18T00:41:59.757Z,997.96
2018-01-18T00:42:59.736Z,997.90
2018-01-18T00:43:59.688Z,997.89
2018-01-18T00:44:59.676Z,997.92
2018-01-18T00:45:59.639Z,997.85
2018-01-18T00:46:59.595Z,997.85
2018-01-18T00:47:59.580Z,997.82
2018-01-18T00:48:59.541Z,997.78
2018-01-18T00:49:59.511Z,997.75
2018-01-18T00:50:59.998Z,997.74
2018-01-18T00:51:59.465Z,997.67
2018-01-18T00:52:59.433Z,997.66
2018-01-18T00:53:59.396Z,997.69
2018-01-18T00:54:59.377Z,997.65
2018-01-18T00:55:59.336Z,997.64
2018-01-18T00:56:59.308Z,997.63
2018-01-18T00:57:59.305Z,997.67
2018-01-18T00:58:59.255Z,997.64
2018-01-18T00:59:59.242Z,997.59
2018-01-18T01:00:59.199Z,997.59
2018-01-18T01:01:59.155Z,997.61
2018-01-18T01:02:59.123Z,997.55
2018-01-18T01:03:59.104Z,997.56
2018-01-18T01:04:59.112Z,997.53
2018-01-18T01:05:59.034Z,997.49
2018-01-18T01:06:59.022Z,997.43
2018-01-18T01:07:59.001Z,997.42
2018-01-18T01:08:58.973Z,997.42
2018-01-18T01:09:58.926Z,997.41
2018-01-18T01:10:58.896Z,997.44
2018-01-18T01:11:58.863Z,997.38
2018-01-18T01:12:58.829Z,997.30
2018-01-18T01:13:58.798Z,997.36
2018-01-18T01:14:58.791Z,997.34
2018-01-18T01:15:58.730Z,997.26
2018-01-18T01:16:58.701Z,997.26
2018-01-18T01:17:58.688Z,997.22
2018-01-18T01:18:58.655Z,997.21
2018-01-18T01:19:58.624Z,997.10
2018-01-18T01:20:58.583Z,997.09
2018-01-18T01:21:58.576Z,997.07
2018-01-18T01:22:58.560Z,997.10
2018-01-18T01:23:58.524Z,997.10
2018-01-18T01:24:58.477Z,997.12
2018-01-18T01:25:58.449Z,997.05
2018-01-18T01:26:58.414Z,997.05
2018-01-18T01:27:58.395Z,997.06
2018-01-18T01:28:58.367Z,996.99
2018-01-18T01:29:59.005Z,996.97
2018-01-18T01:30:58.292Z,996.93
2018-01-18T01:31:58.267Z,996.97
2018-01-18T01:32:58.240Z,996.93
2018-01-18T01:33:58.215Z,996.88
2018-01-18T01:34:58.182Z,996.84
2018-01-18T01:35:58.154Z,996.84
2018-01-18T01:36:58.123Z,996.79
2018-01-18T01:37:58.092Z,996.71
2018-01-18T01:38:58.061Z,996.64
2018-01-18T01:39:58.049Z,996.64
2018-01-18T01:40:58.007Z,996.57
2018-01-18T01:41:57.965Z,996.62
2018-01-18T01:42:57.938Z,996.61
2018-01-18T01:43:57.913Z,996.56
2018-01-18T01:44:57.904Z,996.57
2018-01-18T01:45:57.886Z,996.53
2018-01-18T01:46:57.825Z,996.46
2018-01-18T01:47:57.805Z,996.46
2018-01-18T01:48:57.775Z,996.48
2018-01-18T01:49:57.738Z,996.48
2018-01-18T01:50:57.717Z,996.49
2018-01-18T01:51:57.678Z,996.51
2018-01-18T01:52:57.654Z,996.45
2018-01-18T01:53:57.614Z,996.48
2018-01-18T01:54:57.588Z,996.48
2018-01-18T01:55:57.585Z,996.46
2018-01-18T01:56:57.532Z,996.43
2018-01-18T01:57:57.499Z,996.37
2018-01-18T01:58:57.475Z,996.32
2018-01-18T01:59:57.456Z,996.27
2018-01-18T02:00:57.416Z,996.23
2018-01-18T02:01:57.411Z,996.20
2018-01-18T02:02:57.355Z,996.14
2018-01-18T02:03:57.329Z,996.12
2018-01-18T02:04:57.313Z,996.05
2018-01-18T02:05:57.263Z,996.02
2018-01-18T02:06:57.250Z,996.01
2018-01-18T02:07:57.210Z,995.99
2018-01-18T02:08:57.225Z,996.02
2018-01-18T02:09:57.160Z,996.01
2018-01-18T02:10:57.138Z,995.96
2018-01-18T02:11:57.094Z,995.97
2018-01-18T02:12:57.063Z,995.89
2018-01-18T02:13:57.031Z,995.87
2018-01-18T02:14:57.007Z,995.89
2018-01-18T02:15:56.972Z,995.86
2018-01-18T02:16:56.953Z,995.84
2018-01-18T02:17:56.946Z,995.79
2018-01-18T02:18:56.912Z,995.74
2018-01-18T02:19:56.869Z,995.71
2018-01-18T02:20:56.873Z,995.69
2018-01-18T02:21:56.801Z,995.66
2018-01-18T02:22:56.780Z,995.56
2018-01-18T02:23:56.746Z,995.59
2018-01-18T02:24:56.720Z,995.54
2018-01-18T02:25:56.682Z,995.59
2018-01-18T02:26:56.668Z,995.51
2018-01-18T02:27:56.633Z,995.37
2018-01-18T02:28:56.585Z,995.32
2018-01-18T02:29:56.580Z,995.29
2018-01-18T02:30:56.543Z,995.21
2018-01-18T02:31:56.519Z,995.16
2018-01-18T02:32:56.471Z,995.14
2018-01-18T02:33:56.449Z,995.14
2018-01-18T02:34:56.419Z,995.10
2018-01-18T02:35:56.418Z,995.11
2018-01-18T02:36:56.366Z,995.01
2018-01-18T02:37:56.337Z,994.99
2018-01-18T02:38:56.317Z,994.95
2018-01-18T02:39:56.288Z,994.90
2018-01-18T02:40:56.269Z,994.94
2018-01-18T02:41:56.215Z,994.84
2018-01-18T02:42:56.204Z,994.87
2018-01-18T02:43:56.170Z,994.81
2018-01-18T02:44:56.124Z,994.71
2018-01-18T02:45:56.126Z,994.69
2018-01-18T02:46:56.071Z,994.66
2018-01-18T02:47:56.050Z,994.65
2018-01-18T02:48:56.039Z,994.61
2018-01-18T02:49:56.018Z,994.54
2018-01-18T02:50:55.986Z,994.50
2018-01-18T02:51:55.935Z,994.51
2018-01-18T02:52:55.911Z,994.48
2018-01-18T02:53:55.875Z,994.41
2018-01-18T02:54:55.846Z,994.43
2018-01-18T02:55:55.803Z,994.41
2018-01-18T02:56:55.779Z,994.42
2018-01-18T02:57:55.743Z,994.42
2018-01-18T02:58:55.718Z,994.42
2018-01-18T02:59:55.706Z,994.36
2018-01-18T03:00:55.681Z,994.38
2018-01-18T03:01:55.643Z,994.39
2018-01-18T03:02:55.604Z,994.39
2018-01-18T03:03:55.572Z,994.43
2018-01-18T03:04:55.536Z,994.43
2018-01-18T03:05:55.518Z,994.38
2018-01-18T03:06:55.495Z,994.44
2018-01-18T03:07:55.520Z,994.41
2018-01-18T03:08:55.448Z,994.36
2018-01-18T03:09:55.401Z,994.26
2018-01-18T03:10:55.379Z,994.18
2018-01-18T03:11:55.357Z,994.15
2018-01-18T03:12:56.038Z,994.14
2018-01-18T03:13:55.287Z,994.13
2018-01-18T03:14:55.257Z,994.14
2018-01-18T03:15:55.233Z,994.10
2018-01-18T03:16:55.221Z,994.06
2018-01-18T03:17:55.155Z,994.02
2018-01-18T03:18:55.155Z,993.96
2018-01-18T03:19:55.147Z,993.87
2018-01-18T03:20:55.075Z,993.81
2018-01-18T03:21:55.040Z,993.74
2018-01-18T03:22:55.014Z,993.64
2018-01-18T03:23:55.007Z,993.60
2018-01-18T03:24:54.969Z,993.53
2018-01-18T03:25:54.935Z,993.49
2018-01-18T03:26:54.902Z,993.41
2018-01-18T03:27:54.874Z,993.41
2018-01-18T03:28:54.833Z,993.30
2018-01-18T03:29:54.817Z,993.24
2018-01-18T03:30:54.811Z,993.20
2018-01-18T03:31:54.763Z,993.18
2018-01-18T03:32:54.740Z,993.14
2018-01-18T03:33:54.704Z,993.12
2018-01-18T03:34:54.679Z,993.07
2018-01-18T03:35:54.635Z,993.02
2018-01-18T03:36:54.600Z,993.05
2018-01-18T03:37:54.593Z,992.99
2018-01-18T03:38:54.573Z,992.92
2018-01-18T03:39:54.512Z,992.91
2018-01-18T03:40:54.515Z,992.91
2018-01-18T03:41:54.457Z,992.80
2018-01-18T03:42:54.431Z,992.81
2018-01-18T03:43:54.416Z,992.85
2018-01-18T03:44:54.376Z,992.82
2018-01-18T03:45:54.345Z,992.81
2018-01-18T03:46:54.350Z,992.71
2018-01-18T03:47:54.281Z,992.69
2018-01-18T03:48:54.260Z,992.61
2018-01-18T03:49:54.241Z,992.55
2018-01-18T03:50:54.205Z,992.50
2018-01-18T03:51:54.163Z,992.48
2018-01-18T03:52:54.174Z,992.41
2018-01-18T03:53:54.132Z,992.37
2018-01-18T03:54:54.086Z,992.29
2018-01-18T03:55:54.058Z,992.27
2018-01-18T03:56:54.015Z,992.22
2018-01-18T03:57:54.001Z,992.17
2018-01-18T03:58:53.989Z,992.16
2018-01-18T03:59:53.936Z,992.07
2018-01-18T04:00:53.898Z,991.98
2018-01-18T04:01:53.894Z,991.83
2018-01-18T04:02:53.859Z,991.78
2018-01-18T04:03:53.834Z,991.73
2018-01-18T04:04:53.796Z,991.66
2018-01-18T04:05:53.769Z,991.59
2018-01-18T04:06:53.745Z,991.56
2018-01-18T04:07:53.712Z,991.53
2018-01-18T04:08:53.672Z,991.47
2018-01-18T04:09:53.665Z,991.44
2018-01-18T04:10:53.619Z,991.40
2018-01-18T04:11:53.616Z,991.29
2018-01-18T04:12:53.565Z,991.23
2018-01-18T04:13:53.523Z,991.11
2018-01-18T04:14:53.512Z,991.07
2018-01-18T04:15:53.486Z,991.05
2018-01-18T04:16:53.439Z,990.95
2018-01-18T04:17:53.431Z,990.99
2018-01-18T04:18:53.406Z,990.91
2018-01-18T04:19:53.351Z,990.84
2018-01-18T04:20:53.340Z,990.89
2018-01-18T04:21:53.293Z,990.79
2018-01-18T04:22:53.261Z,990.77
2018-01-18T04:23:53.240Z,990.79
2018-01-18T04:24:53.201Z,990.64
2018-01-18T04:25:53.180Z,990.56
2018-01-18T04:26:53.152Z,990.51
2018-01-18T04:27:53.129Z,990.44
2018-01-18T04:28:53.093Z,990.47
2018-01-18T04:29:53.069Z,990.30
2018-01-18T04:30:53.036Z,990.25
2018-01-18T04:31:52.994Z,990.16
2018-01-18T04:32:52.965Z,990.11
2018-01-18T04:33:52.961Z,990.05
2018-01-18T04:34:52.931Z,989.98
2018-01-18T04:35:52.903Z,989.82
2018-01-18T04:36:52.897Z,989.77
2018-01-18T04:37:52.848Z,989.71
2018-01-18T04:38:52.795Z,989.60
2018-01-18T04:39:52.774Z,989.51
2018-01-18T04:40:52.744Z,989.54
2018-01-18T04:41:52.714Z,989.44
2018-01-18T04:42:52.709Z,989.33
2018-01-18T04:43:52.643Z,989.30
2018-01-18T04:44:52.637Z,989.21
2018-01-18T04:45:52.596Z,989.17
2018-01-18T04:46:52.588Z,989.10
2018-01-18T04:47:52.542Z,989.05
2018-01-18T04:48:52.513Z,989.02
2018-01-18T04:49:52.474Z,988.95
2018-01-18T04:50:52.477Z,988.83
2018-01-18T04:51:52.446Z,988.84
2018-01-18T04:52:52.389Z,988.79
2018-01-18T04:53:52.379Z,988.69
2018-01-18T04:54:52.319Z,988.63
2018-01-18T04:55:52.294Z,988.60
2018-01-18T04:56:52.270Z,988.59
2018-01-18T04:57:52.257Z,988.49
2018-01-18T04:58:52.227Z,988.45
2018-01-18T04:59:52.196Z,988.36
2018-01-18T05:00:52.141Z,988.37
2018-01-18T05:01:52.141Z,988.31
2018-01-18T05:02:52.093Z,988.22
2018-01-18T05:03:52.073Z,988.14
2018-01-18T05:04:52.078Z,988.12
2018-01-18T05:05:52.009Z,988.01
2018-01-18T05:06:51.993Z,987.97
2018-01-18T05:07:51.948Z,987.95
2018-01-18T05:08:51.942Z,987.91
2018-01-18T05:09:51.900Z,987.93
2018-01-18T05:10:51.873Z,987.86
2018-01-18T05:11:51.852Z,987.77
2018-01-18T05:12:51.802Z,987.71
2018-01-18T05:13:51.776Z,987.64
2018-01-18T05:14:51.750Z,987.65
2018-01-18T05:15:51.724Z,987.54
2018-01-18T05:16:51.675Z,987.47
2018-01-18T05:17:51.652Z,987.42
2018-01-18T05:18:51.617Z,987.32
2018-01-18T05:19:51.595Z,987.21
2018-01-18T05:20:53.274Z,987.16
2018-01-18T05:21:52.638Z,987.04
2018-01-18T05:22:51.500Z,986.92
2018-01-18T05:23:51.490Z,986.85
2018-01-18T05:24:51.463Z,986.75
2018-01-18T05:25:51.416Z,986.65
2018-01-18T05:26:51.392Z,986.51
2018-01-18T05:27:51.373Z,986.54
2018-01-18T05:28:51.370Z,986.52
2018-01-18T05:29:51.298Z,986.46
2018-01-18T05:30:51.277Z,986.44
2018-01-18T05:31:51.249Z,986.47
2018-01-18T05:32:51.223Z,986.45
2018-01-18T05:33:51.174Z,986.51
2018-01-18T05:34:51.167Z,986.43
2018-01-18T05:35:51.139Z,986.33
2018-01-18T05:36:51.119Z,986.37
2018-01-18T05:37:51.114Z,986.37
2018-01-18T05:38:51.036Z,986.35
2018-01-18T05:39:51.002Z,986.29
2018-01-18T05:40:50.989Z,986.21
2018-01-18T05:41:50.951Z,985.96
2018-01-18T05:42:50.912Z,985.78
2018-01-18T05:43:50.886Z,985.70
2018-01-18T05:44:50.848Z,985.58
2018-01-18T05:45:50.839Z,985.56
2018-01-18T05:46:50.794Z,985.46
2018-01-18T05:47:50.766Z,985.46
2018-01-18T05:48:50.744Z,985.46
2018-01-18T05:49:50.705Z,985.51
2018-01-18T05:50:50.680Z,985.63
2018-01-18T05:51:50.674Z,985.49
2018-01-18T05:52:50.624Z,985.41
2018-01-18T05:53:50.582Z,985.44
2018-01-18T05:54:50.557Z,985.33
2018-01-18T05:55:50.526Z,985.28
2018-01-18T05:56:50.493Z,985.12
2018-01-18T05:57:50.460Z,985.04
2018-01-18T05:58:50.441Z,984.92
2018-01-18T05:59:50.435Z,984.91
2018-01-18T06:00:50.396Z,984.88
2018-01-18T06:01:50.341Z,984.95
2018-01-18T06:02:50.320Z,984.84
2018-01-18T06:03:50.300Z,984.72
2018-01-18T06:04:50.246Z,984.70
2018-01-18T06:05:50.235Z,984.67
2018-01-18T06:06:50.198Z,984.48
2018-01-18T06:07:50.180Z,984.38
2018-01-18T06:08:50.133Z,984.42
2018-01-18T06:09:50.106Z,984.41
2018-01-18T06:10:50.100Z,984.28
2018-01-18T06:11:50.052Z,984.25
2018-01-18T06:12:50.014Z,984.13
2018-01-18T06:13:49.985Z,983.98
2018-01-18T06:14:49.966Z,983.94
2018-01-18T06:15:49.970Z,983.99
2018-01-18T06:16:49.892Z,983.97
2018-01-18T06:17:49.872Z,983.87
2018-01-18T06:18:49.842Z,983.77
2018-01-18T06:19:49.802Z,983.80
2018-01-18T06:20:49.777Z,983.66
2018-01-18T06:21:49.756Z,983.66
2018-01-18T06:22:49.728Z,983.57
2018-01-18T06:23:49.686Z,983.64
2018-01-18T06:24:49.653Z,983.51
2018-01-18T06:25:49.632Z,983.60
2018-01-18T06:26:49.603Z,983.52
2018-01-18T06:27:49.582Z,983.50
2018-01-18T06:28:49.529Z,983.40
2018-01-18T06:29:49.499Z,983.27
2018-01-18T06:30:49.470Z,983.18
2018-01-18T06:31:49.447Z,983.00
2018-01-18T06:32:49.411Z,983.13
2018-01-18T06:33:49.391Z,983.26
2018-01-18T06:34:49.355Z,982.91
2018-01-18T06:35:49.327Z,982.82
2018-01-18T06:36:49.313Z,982.81
2018-01-18T06:37:49.278Z,982.91
2018-01-18T06:38:49.236Z,982.88
2018-01-18T06:39:49.267Z,982.89
2018-01-18T06:40:49.193Z,983.02
2018-01-18T06:41:49.156Z,982.92
2018-01-18T06:42:49.124Z,982.90
2018-01-18T06:43:49.088Z,982.82
2018-01-18T06:44:49.126Z,982.80
2018-01-18T06:45:49.039Z,982.71
2018-01-18T06:46:49.001Z,982.72
2018-01-18T06:47:48.967Z,982.67
2018-01-18T06:48:48.950Z,982.57
2018-01-18T06:49:48.903Z,982.50
2018-01-18T06:50:48.878Z,982.51
2018-01-18T06:51:48.865Z,982.53
2018-01-18T06:52:48.820Z,982.42
2018-01-18T06:53:48.798Z,982.51
2018-01-18T06:54:48.801Z,982.48
2018-01-18T06:55:48.760Z,982.50
2018-01-18T06:56:48.728Z,982.35
2018-01-18T06:57:48.704Z,982.34
2018-01-18T06:58:48.638Z,982.28
2018-01-18T06:59:48.640Z,982.21
2018-01-18T07:00:48.581Z,982.13
2018-01-18T07:01:48.564Z,982.06
2018-01-18T07:02:48.520Z,982.00
2018-01-18T07:03:48.496Z,981.99
2018-01-18T07:04:48.494Z,981.91
2018-01-18T07:05:48.445Z,981.89
2018-01-18T07:06:48.406Z,981.95
2018-01-18T07:07:48.374Z,981.88
2018-01-18T07:08:48.341Z,981.85
2018-01-18T07:09:48.318Z,981.70
2018-01-18T07:10:48.297Z,981.61
2018-01-18T07:11:48.257Z,981.70
2018-01-18T07:12:48.230Z,981.65
2018-01-18T07:13:48.200Z,981.67
2018-01-18T07:14:48.185Z,981.64
2018-01-18T07:15:48.158Z,981.42
2018-01-18T07:16:48.108Z,981.42
2018-01-18T07:17:48.088Z,981.43
2018-01-18T07:18:48.075Z,981.21
2018-01-18T07:19:48.031Z,981.24
2018-01-18T07:20:47.992Z,980.90
2018-01-18T07:21:47.995Z,981.01
2018-01-18T07:22:47.959Z,980.90
2018-01-18T07:23:47.914Z,980.83
2018-01-18T07:24:47.893Z,980.94
2018-01-18T07:25:47.863Z,980.77
2018-01-18T07:26:47.822Z,980.66
2018-01-18T07:27:47.794Z,980.79
2018-01-18T07:28:47.760Z,980.84
2018-01-18T07:29:47.728Z,980.73
2018-01-18T07:30:47.715Z,980.92
2018-01-18T07:31:47.667Z,980.91
2018-01-18T07:32:47.666Z,980.88
2018-01-18T07:33:47.624Z,980.69
2018-01-18T07:34:47.582Z,980.69
2018-01-18T07:35:47.563Z,980.64
2018-01-18T07:36:47.546Z,980.69
2018-01-18T07:37:47.502Z,980.61
2018-01-18T07:38:47.486Z,980.41
2018-01-18T07:39:47.445Z,980.40
2018-01-18T07:40:47.413Z,980.30
2018-01-18T07:41:47.402Z,980.17
2018-01-18T07:42:47.387Z,980.24
2018-01-18T07:43:47.388Z,980.27
2018-01-18T07:44:47.298Z,980.36
2018-01-18T07:45:47.276Z,980.23
2018-01-18T07:46:47.263Z,980.31
2018-01-18T07:47:47.229Z,980.28
2018-01-18T07:48:47.213Z,980.41
2018-01-18T07:49:47.159Z,980.27
2018-01-18T07:50:47.133Z,980.16
2018-01-18T07:51:47.096Z,980.14
2018-01-18T07:52:47.082Z,980.18
2018-01-18T07:53:47.047Z,980.11
2018-01-18T07:54:47.026Z,980.03
2018-01-18T07:55:46.996Z,979.84
2018-01-18T07:56:47.580Z,980.00
2018-01-18T07:57:46.939Z,979.95
2018-01-18T07:58:46.915Z,979.88
2018-01-18T07:59:46.878Z,979.89
2018-01-18T08:00:46.862Z,979.90
2018-01-18T08:01:46.823Z,979.91
2018-01-18T08:02:46.784Z,979.75
2018-01-18T08:03:46.768Z,979.78
2018-01-18T08:04:46.728Z,979.75
2018-01-18T08:05:46.724Z,979.94
2018-01-18T08:06:46.679Z,980.00
2018-01-18T08:07:46.648Z,979.89
2018-01-18T08:08:46.620Z,979.78
2018-01-18T08:09:46.597Z,979.79
2018-01-18T08:10:46.569Z,979.72
2018-01-18T08:11:46.535Z,979.80
2018-01-18T08:12:46.530Z,979.61
2018-01-18T08:13:46.480Z,979.45
2018-01-18T08:14:46.456Z,979.47
2018-01-18T08:15:46.440Z,979.47
2018-01-18T08:16:46.389Z,979.30
2018-01-18T08:17:46.401Z,979.29
2018-01-18T08:18:46.345Z,979.30
2018-01-18T08:19:46.311Z,979.37
2018-01-18T08:20:46.285Z,979.38
2018-01-18T08:21:46.257Z,979.43
2018-01-18T08:22:46.227Z,979.02
2018-01-18T08:23:46.199Z,979.16
2018-01-18T08:24:46.177Z,979.15
2018-01-18T08:25:46.143Z,979.11
2018-01-18T08:26:46.117Z,979.07
2018-01-18T08:27:46.135Z,979.31
2018-01-18T08:28:46.063Z,978.88
2018-01-18T08:29:46.053Z,978.99
2018-01-18T08:30:46.016Z,978.90
2018-01-18T08:31:45.981Z,979.13
2018-01-18T08:32:45.955Z,979.08
2018-01-18T08:33:45.919Z,979.15
2018-01-18T08:34:45.900Z,979.05
2018-01-18T08:35:45.876Z,979.40
2018-01-18T08:36:45.844Z,979.32
2018-01-18T08:37:46.013Z,979.00
2018-01-18T08:38:45.796Z,979.22
2018-01-18T08:39:45.755Z,979.20
2018-01-18T08:40:45.737Z,979.01
2018-01-18T08:41:45.701Z,979.03
2018-01-18T08:42:45.677Z,979.03
2018-01-18T08:43:45.646Z,978.96
2018-01-18T08:44:45.621Z,978.92
2018-01-18T08:45:45.597Z,978.89
2018-01-18T08:46:45.573Z,978.78
2018-01-18T08:47:45.550Z,978.85
2018-01-18T08:48:45.511Z,978.94
2018-01-18T08:49:45.493Z,979.01
2018-01-18T08:50:45.465Z,978.67
2018-01-18T08:51:45.451Z,978.93
2018-01-18T08:52:45.423Z,979.01
2018-01-18T08:53:45.381Z,978.88
2018-01-18T08:54:45.356Z,978.84
2018-01-18T08:55:45.326Z,978.95
2018-01-18T08:56:45.302Z,978.91
2018-01-18T08:57:45.274Z,979.03
2018-01-18T08:58:45.239Z,978.96
2018-01-18T08:59:45.218Z,978.98
2018-01-18T09:00:45.193Z,978.98
2018-01-18T09:01:45.159Z,978.91
2018-01-18T09:02:45.188Z,978.89
2018-01-18T09:03:45.112Z,978.92
2018-01-18T09:04:45.085Z,978.84
2018-01-18T09:05:45.051Z,978.66
2018-01-18T09:06:45.023Z,979.01
2018-01-18T09:07:45.005Z,978.61
2018-01-18T09:08:44.973Z,978.73
2018-01-18T09:09:44.942Z,978.53
2018-01-18T09:10:44.921Z,978.64
2018-01-18T09:11:44.898Z,978.40
2018-01-18T09:12:44.867Z,978.60
2018-01-18T09:13:44.833Z,978.53
2018-01-18T09:14:44.822Z,978.71
2018-01-18T09:15:44.787Z,978.51
2018-01-18T09:16:44.779Z,978.49
2018-01-18T09:17:44.741Z,978.49
2018-01-18T09:18:44.707Z,978.21
2018-01-18T09:19:44.672Z,978.23
2018-01-18T09:20:44.651Z,978.16
2018-01-18T09:21:44.624Z,978.52
2018-01-18T09:22:44.597Z,978.44
2018-01-18T09:23:44.571Z,978.48
2018-01-18T09:24:44.547Z,978.25
2018-01-18T09:25:44.520Z,978.39
2018-01-18T09:26:44.491Z,978.03
2018-01-18T09:27:44.467Z,978.79
2018-01-18T09:28:44.434Z,978.31
2018-01-18T09:29:44.436Z,978.30
2018-01-18T09:30:44.395Z,978.46
2018-01-18T09:31:44.354Z,978.43
2018-01-18T09:32:44.328Z,978.45
2018-01-18T09:33:44.303Z,979.54
2018-01-18T09:34:44.468Z,978.79
2018-01-18T09:35:44.248Z,978.81
2018-01-18T09:36:44.230Z,978.50
2018-01-18T09:37:44.201Z,978.56
2018-01-18T09:38:44.184Z,979.06
2018-01-18T09:39:44.134Z,978.46
2018-01-18T09:40:44.115Z,978.84
2018-01-18T09:41:44.082Z,978.66
2018-01-18T09:42:44.069Z,978.76
2018-01-18T09:43:44.032Z,978.53
2018-01-18T09:44:44.002Z,978.69
2018-01-18T09:45:43.976Z,978.61
2018-01-18T09:46:43.952Z,978.77
2018-01-18T09:47:43.940Z,978.59
2018-01-18T09:48:43.906Z,978.88
2018-01-18T09:49:43.865Z,978.78
2018-01-18T09:50:43.845Z,978.75
2018-01-18T09:51:43.811Z,979.06
2018-01-18T09:52:43.782Z,978.77
2018-01-18T09:53:43.763Z,978.57
2018-01-18T09:54:43.733Z,978.89
2018-01-18T09:55:43.737Z,978.66
2018-01-18T09:56:43.676Z,978.83
2018-01-18T09:57:43.654Z,978.84
2018-01-18T09:58:43.633Z,978.97
2018-01-18T09:59:43.590Z,978.99
2018-01-18T10:00:43.571Z,978.91
2018-01-18T10:01:43.543Z,978.69
2018-01-18T10:02:43.520Z,978.85
2018-01-18T10:03:43.493Z,978.95
2018-01-18T10:04:43.469Z,978.75
2018-01-18T10:05:43.441Z,978.63
2018-01-18T10:06:43.411Z,978.55
2018-01-18T10:07:43.402Z,978.46
2018-01-18T10:08:43.362Z,978.64
2018-01-18T10:09:43.322Z,978.42
2018-01-18T10:10:43.308Z,978.35
2018-01-18T10:11:43.273Z,978.64
2018-01-18T10:12:43.242Z,978.22
2018-01-18T10:13:43.226Z,978.39
2018-01-18T10:14:44.092Z,978.55
2018-01-18T10:15:43.169Z,978.29
2018-01-18T10:16:43.140Z,978.38
2018-01-18T10:17:43.117Z,978.51
2018-01-18T10:18:43.080Z,978.16
2018-01-18T10:19:43.058Z,978.28
2018-01-18T10:20:43.027Z,978.57
2018-01-18T10:21:43.005Z,978.23
2018-01-18T10:22:42.982Z,978.35
2018-01-18T10:23:42.955Z,978.25
2018-01-18T10:24:42.944Z,978.32
2018-01-18T10:25:42.890Z,978.42
2018-01-18T10:26:42.873Z,978.11
2018-01-18T10:27:42.855Z,978.70
2018-01-18T10:28:42.804Z,978.30
2018-01-18T10:29:42.777Z,977.94
2018-01-18T10:30:42.787Z,978.47
2018-01-18T10:31:42.722Z,978.26
2018-01-18T10:32:42.704Z,978.09
2018-01-18T10:33:42.675Z,978.88
2018-01-18T10:34:42.659Z,978.47
2018-01-18T10:35:42.620Z,977.90
2018-01-18T10:36:42.621Z,978.41
2018-01-18T10:37:42.572Z,978.47
2018-01-18T10:38:42.536Z,978.56
2018-01-18T10:39:42.510Z,978.57
2018-01-18T10:40:42.475Z,978.96
2018-01-18T10:41:42.448Z,978.21
2018-01-18T10:42:42.425Z,978.64
2018-01-18T10:43:42.391Z,978.54
2018-01-18T10:44:42.373Z,978.50
2018-01-18T10:45:42.347Z,978.69
2018-01-18T10:46:42.309Z,978.21
2018-01-18T10:47:42.288Z,978.53
2018-01-18T10:48:42.258Z,978.60
2018-01-18T10:49:42.234Z,978.70
2018-01-18T10:50:42.208Z,978.67
2018-01-18T10:51:42.174Z,978.36
2018-01-18T10:52:42.147Z,979.39
2018-01-18T10:53:42.120Z,978.88
2018-01-18T10:54:42.084Z,978.75
2018-01-18T10:55:42.069Z,978.44
2018-01-18T10:56:42.047Z,979.63
2018-01-18T10:57:41.999Z,978.89
2018-01-18T10:58:41.974Z,978.83
2018-01-18T10:59:41.958Z,978.78
2018-01-18T11:00:41.942Z,978.90
2018-01-18T11:01:42.589Z,978.65
2018-01-18T11:02:41.898Z,979.13
2018-01-18T11:03:41.837Z,978.85
2018-01-18T11:04:41.816Z,979.23
2018-01-18T11:05:41.790Z,978.39
2018-01-18T11:06:41.749Z,979.30
2018-01-18T11:07:41.713Z,979.50
2018-01-18T11:08:41.708Z,979.15
2018-01-18T11:09:41.669Z,979.34
2018-01-18T11:10:41.657Z,979.30
2018-01-18T11:11:41.614Z,979.77
2018-01-18T11:12:41.578Z,979.46
2018-01-18T11:13:41.548Z,979.29
2018-01-18T11:14:41.529Z,979.48
2018-01-18T11:15:41.496Z,979.68
2018-01-18T11:16:41.458Z,979.52
2018-01-18T11:17:41.436Z,980.10
2018-01-18T11:18:41.409Z,980.15
2018-01-18T11:19:41.380Z,980.19
2018-01-18T11:20:41.346Z,980.10
2018-01-18T11:21:41.319Z,980.03
2018-01-18T11:22:41.303Z,980.25
2018-01-18T11:23:41.264Z,980.22
2018-01-18T11:24:41.234Z,980.31
2018-01-18T11:25:41.207Z,981.20
2018-01-18T11:26:41.173Z,980.44
2018-01-18T11:27:41.141Z,981.10
2018-01-18T11:28:41.114Z,981.80
2018-01-18T11:29:41.079Z,980.94
2018-01-18T11:30:41.053Z,980.86
2018-01-18T11:31:41.037Z,981.31
2018-01-18T11:32:41.004Z,981.18
2018-01-18T11:33:40.976Z,981.26
2018-01-18T11:34:40.960Z,981.70
2018-01-18T11:35:40.910Z,980.39
2018-01-18T11:36:40.884Z,981.63
2018-01-18T11:37:40.867Z,981.16
2018-01-18T11:38:40.826Z,981.68
2018-01-18T11:39:40.828Z,981.53
2018-01-18T11:40:40.767Z,981.75
2018-01-18T11:41:40.742Z,982.09
2018-01-18T11:42:40.723Z,982.54
2018-01-18T11:43:40.718Z,982.06
2018-01-18T11:44:40.659Z,982.28
2018-01-18T11:45:40.627Z,982.92
2018-01-18T11:46:40.622Z,982.95
2018-01-18T11:47:40.576Z,982.36
2018-01-18T11:48:40.560Z,982.79
2018-01-18T11:49:41.089Z,982.43
2018-01-18T11:50:40.476Z,982.25
2018-01-18T11:51:40.468Z,983.67
2018-01-18T11:52:40.420Z,982.87
2018-01-18T11:53:40.385Z,982.55
2018-01-18T11:54:40.362Z,983.03
2018-01-18T11:55:40.371Z,983.29
2018-01-18T11:56:40.303Z,983.43
2018-01-18T11:57:40.274Z,983.52
2018-01-18T11:58:40.251Z,983.29
2018-01-18T11:59:40.214Z,983.82
2018-01-18T12:00:40.185Z,983.32
2018-01-18T12:01:40.181Z,983.60
2018-01-18T12:02:40.132Z,983.67
2018-01-18T12:03:40.099Z,983.48
2018-01-18T12:04:40.076Z,983.97
2018-01-18T12:05:40.065Z,984.42
2018-01-18T12:06:40.024Z,984.81
2018-01-18T12:07:39.982Z,983.71
2018-01-18T12:08:39.959Z,984.57
2018-01-18T12:09:39.934Z,984.23
2018-01-18T12:10:39.903Z,984.43
2018-01-18T12:11:39.890Z,984.29
2018-01-18T12:12:39.866Z,984.98
2018-01-18T12:13:39.810Z,984.28
2018-01-18T12:14:39.781Z,984.39
2018-01-18T12:15:39.773Z,985.33
2018-01-18T12:16:39.724Z,984.60
2018-01-18T12:17:39.697Z,985.31
2018-01-18T12:18:39.663Z,985.72
2018-01-18T12:19:39.651Z,985.09
2018-01-18T12:20:39.608Z,984.97
2018-01-18T12:21:39.573Z,985.35
2018-01-18T12:22:39.554Z,985.23
2018-01-18T12:23:39.590Z,985.25
2018-01-18T12:24:39.507Z,985.37
2018-01-18T12:25:39.456Z,985.69
2018-01-18T12:26:39.455Z,986.07
2018-01-18T12:27:39.413Z,985.83